createdAt,value
2019-01-08T00:00:41.490Z,76.37
2019-01-08T00:03:16.783Z,74.80
2019-01-08T00:05:48.693Z,77.37
2019-01-08T00:08:20.605Z,74.90
2019-01-08T00:10:54.483Z,72.50
2019-01-08T00:13:26.681Z,76.03
2019-01-08T00:16:03.486Z,76.10
2019-01-08T00:18:35.354Z,76.50
2019-01-08T00:21:07.251Z,74.27
2019-01-08T00:23:39.170Z,72.93
2019-01-08T00:26:11.361Z,75.43
2019-01-08T00:28:43.601Z,78.73
2019-01-08T00:31:15.466Z,76.63
2019-01-08T00:33:47.396Z,73.27
2019-01-08T00:36:19.254Z,74.57
2019-01-08T00:38:51.214Z,84.00
2019-01-08T00:41:27.146Z,86.17
2019-01-08T00:43:59.077Z,86.47
2019-01-08T00:46:31.651Z,78.03
2019-01-08T00:49:03.498Z,78.07
2019-01-08T00:51:35.439Z,74.93
2019-01-08T00:54:07.294Z,75.00
2019-01-08T00:56:39.583Z,78.60
2019-01-08T00:59:11.466Z,80.73
2019-01-08T01:01:45.324Z,81.47
2019-01-08T01:04:17.183Z,78.50
2019-01-08T01:06:49.208Z,77.13
2019-01-08T01:09:21.054Z,81.23
2019-01-08T01:11:52.996Z,78.77
2019-01-08T01:14:25.042Z,78.80
2019-01-08T01:16:56.910Z,76.93
2019-01-08T01:19:29.542Z,73.03
2019-01-08T01:22:01.476Z,75.30
2019-01-08T01:24:33.341Z,71.93
2019-01-08T01:27:05.247Z,72.70
2019-01-08T01:29:37.098Z,71.17
2019-01-08T01:32:10.994Z,66.80
2019-01-08T01:34:45.370Z,71.93
2019-01-08T01:37:17.707Z,73.40
2019-01-08T01:39:49.581Z,72.20
2019-01-08T01:42:21.479Z,71.87
2019-01-08T01:44:53.378Z,72.20
2019-01-08T01:47:25.248Z,67.37
2019-01-08T01:50:00.354Z,67.33
2019-01-08T01:52:32.255Z,65.43
2019-01-08T01:55:04.245Z,63.93
2019-01-08T01:57:36.096Z,66.33
2019-01-08T02:00:11.047Z,64.47
2019-01-08T02:02:45.430Z,68.20
2019-01-08T02:05:18.601Z,69.10
2019-01-08T02:07:50.468Z,63.60
2019-01-08T02:10:22.463Z,69.03
2019-01-08T02:12:54.390Z,68.63
2019-01-08T02:15:26.302Z,67.53
2019-01-08T02:17:58.135Z,70.13
2019-01-08T02:20:30.195Z,65.83
2019-01-08T02:23:02.037Z,64.80
2019-01-08T02:25:33.921Z,64.70
2019-01-08T02:28:07.094Z,62.47
2019-01-08T02:30:38.931Z,63.80
2019-01-08T02:33:10.806Z,66.17
2019-01-08T02:35:42.671Z,62.33
2019-01-08T02:38:18.193Z,61.30
2019-01-08T02:40:50.079Z,59.40
2019-01-08T02:43:22.130Z,61.27
2019-01-08T02:45:54.023Z,60.67
2019-01-08T02:48:25.864Z,61.80
2019-01-08T02:50:57.797Z,60.13
2019-01-08T02:53:29.659Z,55.23
2019-01-08T02:56:01.879Z,55.70
2019-01-08T02:58:33.809Z,53.97
2019-01-08T03:01:05.727Z,52.10
2019-01-08T03:03:37.575Z,51.30
2019-01-08T03:06:09.480Z,58.83
2019-01-08T03:08:43.071Z,58.17
2019-01-08T03:11:14.932Z,59.73
2019-01-08T03:13:46.913Z,60.40
2019-01-08T03:16:18.926Z,59.93
2019-01-08T03:18:50.916Z,56.47
2019-01-08T03:21:22.805Z,55.93
2019-01-08T03:23:55.018Z,57.83
2019-01-08T03:26:29.060Z,55.23
2019-01-08T03:29:03.375Z,56.17
2019-01-08T03:31:35.389Z,55.13
2019-01-08T03:34:07.386Z,56.80
2019-01-08T03:36:39.656Z,54.93
2019-01-08T03:39:11.536Z,58.60
2019-01-08T03:41:43.383Z,56.33
2019-01-08T03:44:15.279Z,58.13
2019-01-08T03:46:47.802Z,53.57
2019-01-08T03:49:19.798Z,48.53
2019-01-08T03:51:51.697Z,46.50
2019-01-08T03:54:23.554Z,43.90
2019-01-08T03:56:55.457Z,41.60
2019-01-08T03:59:27.320Z,36.53
2019-01-08T04:01:59.210Z,35.73
2019-01-08T04:04:31.258Z,35.87
2019-01-08T04:07:03.148Z,37.93
2019-01-08T04:09:35.071Z,44.73
2019-01-08T04:12:06.913Z,48.90
2019-01-08T04:14:38.828Z,51.03
2019-01-08T04:17:10.753Z,54.53
2019-01-08T04:19:42.813Z,54.50
2019-01-08T04:22:14.783Z,54.97
2019-01-08T04:24:46.658Z,56.13
2019-01-08T04:27:21.042Z,55.10
2019-01-08T04:29:53.376Z,55.10
2019-01-08T04:32:25.274Z,52.17
2019-01-08T04:34:57.376Z,53.63
2019-01-08T04:37:29.318Z,54.50
2019-01-08T04:40:01.240Z,54.83
2019-01-08T04:42:35.831Z,54.47
2019-01-08T04:45:08.129Z,54.53
2019-01-08T04:47:40.495Z,55.73
2019-01-08T04:50:12.377Z,53.60
2019-01-08T04:52:44.293Z,53.23
2019-01-08T04:55:16.258Z,53.00
2019-01-08T04:57:49.826Z,54.43
2019-01-08T05:00:21.794Z,53.77
2019-01-08T05:02:53.774Z,51.17
2019-01-08T05:05:25.843Z,53.47
2019-01-08T05:07:57.801Z,54.53
2019-01-08T05:10:29.659Z,52.50
2019-01-08T05:13:01.546Z,53.43
2019-01-08T05:15:33.412Z,50.73
2019-01-08T05:18:05.403Z,51.27
2019-01-08T05:20:37.336Z,52.27
2019-01-08T05:23:09.738Z,51.97
2019-01-08T05:25:41.623Z,50.50
2019-01-08T05:28:13.564Z,52.07
2019-01-08T05:30:47.086Z,52.87
2019-01-08T05:33:19.092Z,51.40
2019-01-08T05:35:50.974Z,51.40
2019-01-08T05:38:22.924Z,49.00
2019-01-08T05:40:57.387Z,52.60
2019-01-08T05:43:29.610Z,49.70
2019-01-08T05:46:01.546Z,48.83
2019-01-08T05:48:33.455Z,50.27
2019-01-08T05:51:05.362Z,49.57
2019-01-08T05:53:38.688Z,48.63
2019-01-08T05:56:10.626Z,51.07
2019-01-08T05:58:42.478Z,48.77
2019-01-08T06:01:14.363Z,48.37
2019-01-08T06:03:50.071Z,46.50
2019-01-08T06:06:23.109Z,46.70
2019-01-08T06:08:55.025Z,49.20
2019-01-08T06:11:27.891Z,47.23
2019-01-08T06:13:59.913Z,47.13
2019-01-08T06:16:32.473Z,48.23
2019-01-08T06:19:04.452Z,48.07
2019-01-08T06:21:36.351Z,46.83
2019-01-08T06:24:08.267Z,47.27
2019-01-08T06:26:40.143Z,49.83
2019-01-08T06:29:12.535Z,46.40
2019-01-08T06:31:44.396Z,46.77
2019-01-08T06:34:16.297Z,48.03
2019-01-08T06:36:48.186Z,43.93
2019-01-08T06:39:20.136Z,41.90
2019-01-08T06:41:52.440Z,43.60
2019-01-08T06:44:24.371Z,46.13
2019-01-08T06:46:56.228Z,41.90
2019-01-08T06:49:28.699Z,42.33
2019-01-08T06:52:00.723Z,41.10
2019-01-08T06:54:32.610Z,40.60
2019-01-08T06:57:04.547Z,37.13
2019-01-08T06:59:36.469Z,35.03
2019-01-08T07:02:08.322Z,34.73
2019-01-08T07:04:40.208Z,33.60
2019-01-08T07:07:12.044Z,34.03
2019-01-08T07:09:43.985Z,33.73
2019-01-08T07:12:17.442Z,35.70
2019-01-08T07:14:49.366Z,36.07
2019-01-08T07:17:21.251Z,38.17
2019-01-08T07:19:53.155Z,40.97
2019-01-08T07:22:25.206Z,42.53
2019-01-08T07:24:57.051Z,41.13
2019-01-08T07:27:28.951Z,41.73
2019-01-08T07:30:02.047Z,42.73
2019-01-08T07:32:33.976Z,43.37
2019-01-08T07:35:06.135Z,43.47
2019-01-08T07:37:38.487Z,41.37
2019-01-08T07:40:10.410Z,41.87
2019-01-08T07:42:45.252Z,39.80
2019-01-08T07:45:17.266Z,42.77
2019-01-08T07:47:49.278Z,40.43
2019-01-08T07:50:21.163Z,40.43
2019-01-08T07:52:53.098Z,41.60
2019-01-08T07:55:28.140Z,41.60
2019-01-08T07:58:01.791Z,41.60
2019-01-08T08:00:33.714Z,42.10
2019-01-08T08:03:05.552Z,42.90
2019-01-08T08:05:37.459Z,43.97
2019-01-08T08:08:09.354Z,43.77
2019-01-08T08:10:41.221Z,43.47
2019-01-08T08:13:13.126Z,43.33
2019-01-08T08:15:45.008Z,44.47
2019-01-08T08:18:16.904Z,42.37
2019-01-08T08:20:48.753Z,46.00
2019-01-08T08:23:20.697Z,44.40
2019-01-08T08:25:52.555Z,42.10
2019-01-08T08:28:24.500Z,43.07
2019-01-08T08:30:58.954Z,42.03
2019-01-08T08:33:30.642Z,43.80
2019-01-08T08:36:02.541Z,44.47
2019-01-08T08:38:34.486Z,45.80
2019-01-08T08:41:07.686Z,46.47
2019-01-08T08:43:39.524Z,45.23
2019-01-08T08:46:11.466Z,46.47
2019-01-08T08:48:45.665Z,45.63
2019-01-08T08:51:18.108Z,44.07
2019-01-08T08:53:52.539Z,42.60
2019-01-08T08:56:25.301Z,42.47
2019-01-08T08:58:57.224Z,56.90
2019-01-08T09:01:29.111Z,46.87
2019-01-08T09:04:01.001Z,46.53
2019-01-08T09:06:32.880Z,42.27
2019-01-08T09:09:04.865Z,41.70
2019-01-08T09:11:36.777Z,44.30
2019-01-08T09:14:08.705Z,44.10
2019-01-08T09:16:40.600Z,44.97
2019-01-08T09:19:12.487Z,41.37
2019-01-08T09:21:44.367Z,36.87
2019-01-08T09:24:16.260Z,38.07
2019-01-08T09:26:48.153Z,36.40
2019-01-08T09:29:20.214Z,39.70
2019-01-08T09:31:52.265Z,36.30
2019-01-08T09:34:24.266Z,35.45
2019-01-08T09:36:56.143Z,39.38
2019-01-08T09:39:28.572Z,44.15
2019-01-08T09:42:00.555Z,45.85
2019-01-08T09:44:32.561Z,48.95
2019-01-08T09:47:04.447Z,44.53
2019-01-08T09:49:36.385Z,42.70
2019-01-08T09:52:10.368Z,37.53
2019-01-08T09:54:42.406Z,32.70
2019-01-08T09:57:14.653Z,34.73
2019-01-08T09:59:46.563Z,33.80
2019-01-08T10:02:18.572Z,33.63
2019-01-08T10:04:50.475Z,36.75
2019-01-08T10:07:22.363Z,34.50
2019-01-08T10:09:54.266Z,39.60
2019-01-08T10:12:26.153Z,43.25
2019-01-08T10:14:58.057Z,46.70
2019-01-08T10:17:30.083Z,45.40
2019-01-08T10:20:02.056Z,44.08
2019-01-08T10:22:33.922Z,40.67
2019-01-08T10:25:06.394Z,36.48
2019-01-08T10:27:38.301Z,36.60
2019-01-08T10:30:11.104Z,32.75
2019-01-08T10:32:45.766Z,33.25
2019-01-08T10:35:17.647Z,32.67
2019-01-08T10:37:51.709Z,29.18
2019-01-08T10:40:23.674Z,29.75
2019-01-08T10:42:58.835Z,28.57
2019-01-08T10:45:29.502Z,28.32
2019-01-08T10:48:00.984Z,33.30
2019-01-08T10:50:34.290Z,30.25
2019-01-08T10:53:06.190Z,29.15
2019-01-08T10:55:38.465Z,33.85
2019-01-08T10:58:11.639Z,34.08
2019-01-08T11:00:43.537Z,31.55
2019-01-08T11:03:15.510Z,30.45
2019-01-08T11:05:51.969Z,33.90
2019-01-08T11:08:24.683Z,56.50
2019-01-08T11:10:56.795Z,54.33
2019-01-08T11:13:28.655Z,48.10
2019-01-08T11:16:00.588Z,44.42
2019-01-08T11:18:32.488Z,144.32
2019-01-08T11:21:04.519Z,161.52
2019-01-08T11:23:38.408Z,107.15
2019-01-08T11:26:10.402Z,68.70
2019-01-08T11:28:43.327Z,52.23
2019-01-08T11:31:15.451Z,52.40
2019-01-08T11:33:47.400Z,56.58
2019-01-08T11:36:22.450Z,47.17
2019-01-08T11:38:55.147Z,54.93
2019-01-08T11:41:30.535Z,55.67
2019-01-08T11:44:02.711Z,43.48
2019-01-08T11:46:35.156Z,40.88
2019-01-08T11:49:07.196Z,37.30
2019-01-08T11:51:39.185Z,37.20
2019-01-08T11:54:13.076Z,37.30
2019-01-08T11:56:45.009Z,37.13
2019-01-08T11:59:16.953Z,30.17
2019-01-08T12:01:56.982Z,33.13
2019-01-08T12:04:22.616Z,23.65
2019-01-08T12:06:54.490Z,23.25
2019-01-08T12:09:26.391Z,24.80
2019-01-08T12:11:58.234Z,26.65
2019-01-08T12:14:31.758Z,27.85
2019-01-08T12:17:04.062Z,28.25
2019-01-08T12:19:36.001Z,29.35
2019-01-08T12:22:08.011Z,29.40
2019-01-08T12:24:39.930Z,29.05
2019-01-08T12:27:13.343Z,27.15
2019-01-08T12:29:46.932Z,24.92
2019-01-08T12:32:18.930Z,21.42
2019-01-08T12:34:50.944Z,21.55
2019-01-08T12:37:23.396Z,20.57
2019-01-08T12:39:55.277Z,21.20
2019-01-08T12:42:27.319Z,21.62
2019-01-08T12:44:59.287Z,19.50
2019-01-08T12:47:31.199Z,20.72
2019-01-08T12:50:03.121Z,20.60
2019-01-08T12:52:35.058Z,19.75
2019-01-08T12:55:07.250Z,19.25
2019-01-08T12:57:42.044Z,19.05
2019-01-08T13:00:14.371Z,19.90
2019-01-08T13:02:46.405Z,18.90
2019-01-08T13:05:18.338Z,20.95
2019-01-08T13:07:54.780Z,19.45
2019-01-08T13:10:26.799Z,19.42
2019-01-08T13:12:58.734Z,18.87
2019-01-08T13:15:30.691Z,23.85
2019-01-08T13:18:02.594Z,26.52
2019-01-08T13:20:34.654Z,22.35
2019-01-08T13:23:08.410Z,17.23
2019-01-08T13:25:40.374Z,22.20
2019-01-08T13:28:15.825Z,20.45
2019-01-08T13:30:47.936Z,8.55
2019-01-08T13:33:19.909Z,6.50
2019-01-08T13:35:57.922Z,7.40
2019-01-08T13:38:29.779Z,6.95
2019-01-08T13:41:01.869Z,6.87
2019-01-08T13:43:34.291Z,7.53
2019-01-08T13:46:06.240Z,6.58
2019-01-08T13:48:38.124Z,7.15
2019-01-08T13:51:10.055Z,9.30
2019-01-08T13:53:41.897Z,9.10
2019-01-08T13:56:17.365Z,8.50
2019-01-08T13:58:49.254Z,9.60
2019-01-08T14:01:28.618Z,10.43
2019-01-08T14:04:00.531Z,10.20
2019-01-08T14:06:33.516Z,10.18
2019-01-08T14:09:08.289Z,9.65
2019-01-08T14:11:40.286Z,10.20
2019-01-08T14:14:15.389Z,12.70
2019-01-08T14:16:47.309Z,12.93
2019-01-08T14:19:19.248Z,10.78
2019-01-08T14:21:51.197Z,11.57
2019-01-08T14:24:23.092Z,14.53
2019-01-08T14:26:54.970Z,20.12
2019-01-08T14:29:26.848Z,22.77
2019-01-08T14:32:00.795Z,14.87
2019-01-08T14:34:32.693Z,10.40
2019-01-08T14:37:05.006Z,15.03
2019-01-08T14:39:36.958Z,11.10
2019-01-08T14:42:10.450Z,9.73
2019-01-08T14:44:42.418Z,10.65
2019-01-08T14:47:14.393Z,10.03
2019-01-08T14:49:46.300Z,9.88
2019-01-08T14:52:18.160Z,10.43
2019-01-08T14:54:50.026Z,10.65
2019-01-08T14:57:21.904Z,10.05
2019-01-08T14:59:53.826Z,10.48
2019-01-08T15:02:25.687Z,9.75
2019-01-08T15:04:58.012Z,10.13
2019-01-08T15:07:30.113Z,10.18
2019-01-08T15:10:03.623Z,9.48
2019-01-08T15:12:35.786Z,10.93
2019-01-08T15:15:08.260Z,11.88
2019-01-08T15:17:40.691Z,11.00
2019-01-08T15:20:12.984Z,13.05
2019-01-08T15:22:44.864Z,12.65
2019-01-08T15:25:16.719Z,11.57
2019-01-08T15:27:48.614Z,11.63
2019-01-08T15:30:20.515Z,11.10
2019-01-08T15:32:58.241Z,11.88
2019-01-08T15:35:26.259Z,11.20
2019-01-08T15:37:58.199Z,11.20
2019-01-08T15:40:30.189Z,10.82
2019-01-08T15:43:03.341Z,11.18
2019-01-08T15:45:35.266Z,11.55
2019-01-08T15:48:07.200Z,11.25
2019-01-08T15:50:39.115Z,12.40
2019-01-08T15:53:10.971Z,12.70
2019-01-08T15:55:45.400Z,12.93
2019-01-08T15:58:18.494Z,14.83
2019-01-08T16:00:50.412Z,14.30
2019-01-08T16:03:22.302Z,13.75
2019-01-08T16:05:54.208Z,14.13
2019-01-08T16:08:26.105Z,17.23
2019-01-08T16:10:58.079Z,16.52
2019-01-08T16:13:30.169Z,20.62
2019-01-08T16:16:02.041Z,26.07
2019-01-08T16:18:35.583Z,57.27
2019-01-08T16:21:07.573Z,53.68
2019-01-08T16:23:39.451Z,40.60
2019-01-08T16:26:11.447Z,32.70
2019-01-08T16:28:43.309Z,27.15
2019-01-08T16:31:15.289Z,26.57
2019-01-08T16:33:47.191Z,33.42
2019-01-08T16:36:19.074Z,41.20
2019-01-08T16:38:51.029Z,40.52
2019-01-08T16:41:22.915Z,37.13
2019-01-08T16:43:54.757Z,36.53
2019-01-08T16:46:26.681Z,23.00
2019-01-08T16:48:58.568Z,38.02
2019-01-08T16:51:30.861Z,36.53
2019-01-08T16:54:02.931Z,29.63
2019-01-08T16:56:34.762Z,33.30
2019-01-08T16:59:06.754Z,28.45
2019-01-08T17:01:38.585Z,18.45
2019-01-08T17:04:10.472Z,20.45
2019-01-08T17:06:42.356Z,34.45
2019-01-08T17:09:14.472Z,49.13
2019-01-08T17:11:46.328Z,60.92
2019-01-08T17:14:18.220Z,36.25
2019-01-08T17:16:53.859Z,34.60
2019-01-08T17:19:25.828Z,46.45
2019-01-08T17:21:57.916Z,36.17
2019-01-08T17:24:29.876Z,36.58
2019-01-08T17:27:01.817Z,25.30
2019-01-08T17:32:59.455Z,26.10
2019-01-08T17:35:31.348Z,22.30
2019-01-08T17:38:03.273Z,24.27
2019-01-08T17:40:35.174Z,16.77
2019-01-08T17:43:07.070Z,16.55
2019-01-08T17:45:41.667Z,17.37
2019-01-08T17:48:15.800Z,19.92
2019-01-08T17:50:50.117Z,14.40
2019-01-08T17:53:22.061Z,15.95
2019-01-08T17:55:53.985Z,22.32
2019-01-08T17:58:45.829Z,97.65
2019-01-08T18:01:27.732Z,86.97
2019-01-08T18:03:59.718Z,23.25
2019-01-08T18:06:50.408Z,24.37
2019-01-08T18:09:53.735Z,39.88
2019-01-08T18:12:26.700Z,33.63
2019-01-08T18:14:58.622Z,53.15
2019-01-08T18:17:32.276Z,96.15
2019-01-08T18:20:06.769Z,116.57
2019-01-08T18:22:38.719Z,151.63
2019-01-08T18:25:11.823Z,164.32
2019-01-08T18:27:45.351Z,223.35
2019-01-08T18:30:18.891Z,116.10
2019-01-08T18:32:50.827Z,96.40
2019-01-08T18:35:22.872Z,104.72
2019-01-08T18:37:54.787Z,91.60
2019-01-08T18:40:26.632Z,73.28
2019-01-08T18:42:58.721Z,68.52
2019-01-08T18:45:30.982Z,93.40
2019-01-08T18:48:02.848Z,85.67
2019-01-08T18:50:35.833Z,94.03
2019-01-08T18:53:09.514Z,102.17
2019-01-08T18:55:43.279Z,116.97
2019-01-08T18:58:16.518Z,110.52
2019-01-08T19:00:49.458Z,131.03
2019-01-08T19:03:21.368Z,135.37
2019-01-08T19:05:53.266Z,146.13
2019-01-08T19:08:47.221Z,111.32
2019-01-08T19:11:19.067Z,95.35
2019-01-08T19:13:51.064Z,97.72
2019-01-08T19:19:23.235Z,124.18
2019-01-08T19:21:56.816Z,160.52
2019-01-08T19:24:32.066Z,101.80
2019-01-08T19:27:05.690Z,89.30
2019-01-08T19:29:39.431Z,139.53
2019-01-08T19:32:11.247Z,166.10
2019-01-08T19:34:49.464Z,122.62
2019-01-08T19:37:21.497Z,89.58
2019-01-08T19:39:56.951Z,74.03
2019-01-08T19:42:29.965Z,73.07
2019-01-08T19:45:03.668Z,68.35
2019-01-08T19:47:35.594Z,81.87
2019-01-08T19:50:08.720Z,73.28
2019-01-08T19:52:43.811Z,73.92
2019-01-08T19:55:16.670Z,85.62
2019-01-08T19:57:49.691Z,88.27
2019-01-08T20:00:21.779Z,85.60
2019-01-08T20:02:53.708Z,82.75
2019-01-08T20:05:25.687Z,85.83
2019-01-08T20:07:59.241Z,106.60
2019-01-08T20:10:31.476Z,96.10
2019-01-08T20:13:03.358Z,89.53
2019-01-08T20:15:35.288Z,92.27
2019-01-08T20:18:07.644Z,98.90
2019-01-08T20:20:39.836Z,103.47
2019-01-08T20:23:12.279Z,93.43
2019-01-08T20:25:44.171Z,78.83
2019-01-08T20:28:16.069Z,77.23
2019-01-08T20:30:49.554Z,76.53
2019-01-08T20:33:21.414Z,80.87
2019-01-08T20:35:53.352Z,84.30
2019-01-08T20:38:25.206Z,82.50
2019-01-08T20:40:58.729Z,97.33
2019-01-08T20:43:31.701Z,90.27
2019-01-08T20:46:04.776Z,91.57
2019-01-08T20:48:36.699Z,92.00
2019-01-08T20:51:08.828Z,94.57
2019-01-08T20:53:41.180Z,101.40
2019-01-08T20:56:13.229Z,90.13
2019-01-08T20:58:45.122Z,83.70
2019-01-08T21:01:17.015Z,86.85
2019-01-08T21:03:48.889Z,79.65
2019-01-08T21:06:20.777Z,75.90
2019-01-08T21:08:52.707Z,76.77
2019-01-08T21:11:28.148Z,79.13
2019-01-08T21:13:59.993Z,84.03
2019-01-08T21:16:32.646Z,79.30
2019-01-08T21:19:04.502Z,88.27
2019-01-08T21:21:39.863Z,90.17
2019-01-08T21:24:13.890Z,84.17
2019-01-08T21:26:45.785Z,80.27
2019-01-08T21:29:18.097Z,80.63
2019-01-08T21:31:50.475Z,75.53
2019-01-08T21:34:26.085Z,81.10
2019-01-08T21:36:58.380Z,83.13
2019-01-08T21:39:30.369Z,96.30
2019-01-08T21:42:03.660Z,86.30
2019-01-08T21:44:35.555Z,77.23
2019-01-08T21:47:07.457Z,79.90
2019-01-08T21:49:39.307Z,87.73
2019-01-08T21:52:11.266Z,81.33
2019-01-08T21:54:43.227Z,82.40
2019-01-08T21:57:17.860Z,80.63
2019-01-08T21:59:49.740Z,84.73
2019-01-08T22:02:21.845Z,87.77
2019-01-08T22:04:54.092Z,82.73
2019-01-08T22:07:26.125Z,77.33
2019-01-08T22:10:00.818Z,89.23
2019-01-08T22:12:32.725Z,86.17
2019-01-08T22:15:05.001Z,83.90
2019-01-08T22:17:36.841Z,87.20
2019-01-08T22:20:10.533Z,91.63
2019-01-08T22:22:42.459Z,87.83
2019-01-08T22:25:14.459Z,84.10
2019-01-08T22:27:46.585Z,83.20
2019-01-08T22:30:19.032Z,85.80
2019-01-08T22:32:50.945Z,81.03
2019-01-08T22:35:22.785Z,84.70
2019-01-08T22:37:55.003Z,80.63
2019-01-08T22:40:26.941Z,85.43
2019-01-08T22:42:59.028Z,90.20
2019-01-08T22:45:30.973Z,95.13
2019-01-08T22:48:03.538Z,86.73
2019-01-08T22:50:35.447Z,84.53
2019-01-08T22:53:09.338Z,82.83
2019-01-08T22:55:41.775Z,77.43
2019-01-08T22:58:14.515Z,79.77
2019-01-08T23:01:15.449Z,89.97
2019-01-08T23:03:50.170Z,87.57
2019-01-08T23:06:23.525Z,85.50
2019-01-08T23:09:01.245Z,86.00
2019-01-08T23:11:37.436Z,83.23
2019-01-08T23:14:09.099Z,80.03
2019-01-08T23:16:43.468Z,85.93
2019-01-08T23:19:15.443Z,83.00
2019-01-08T23:21:48.332Z,84.80
2019-01-08T23:24:20.189Z,88.87
2019-01-08T23:26:52.315Z,88.27
2019-01-08T23:29:24.318Z,88.73
2019-01-08T23:31:56.320Z,78.53
2019-01-08T23:34:28.175Z,78.50
2019-01-08T23:37:00.099Z,86.53
2019-01-08T23:39:32.089Z,86.03
2019-01-08T23:42:04.130Z,82.67
2019-01-08T23:44:36.504Z,84.57
2019-01-08T23:47:08.401Z,87.37
2019-01-08T23:49:40.325Z,81.80
2019-01-08T23:52:25.460Z,83.10
2019-01-08T23:54:58.260Z,79.03
2019-01-08T23:57:31.404Z,80.33
